Time;durP1;ratioP1;P1;durP2;ratioP2;P2;SDS_P1;SDS_P2;PMS_P1;PMS_P2;Temp;Humidity;BMP_temperature;BMP_pressure;BME280_temperature;BME280_humidity;BME280_pressure;Samples;Min_cycle;Max_cycle;Signal;HPM_P1;HPM_P2
2022/05/10 00:02:16;;;;;;;8.93;7.73;;;19.60;66.00;;;;;;5053063;28;21059;-69
2022/05/10 00:04:46;;;;;;;9.73;7.50;;;19.50;66.00;;;;;;5053175;28;20848;-68
2022/05/10 00:07:13;;;;;;;10.87;6.83;;;19.50;66.40;;;;;;5052712;28;20925;-69
2022/05/10 00:09:39;;;;;;;12.27;7.07;;;19.40;66.60;;;;;;5052813;28;20442;-69
2022/05/10 00:12:07;;;;;;;12.90;8.10;;;19.30;66.90;;;;;;5053268;28;20470;-68
2022/05/10 00:14:34;;;;;;;18.83;8.33;;;19.30;67.30;;;;;;5053264;28;20445;-68
2022/05/10 00:17:01;;;;;;;27.37;8.30;;;19.30;67.30;;;;;;5052811;28;20963;-69
2022/05/10 00:19:30;;;;;;;33.63;8.43;;;19.30;67.40;;;;;;5053032;28;20452;-68
2022/05/10 00:21:57;;;;;;;19.83;8.43;;;19.20;67.10;;;;;;5053217;28;20516;-68
2022/05/10 00:24:24;;;;;;;15.77;7.90;;;19.20;67.40;;;;;;5053087;28;20477;-68
2022/05/10 00:26:52;;;;;;;15.60;7.50;;;19.20;67.50;;;;;;5053192;28;20481;-68
2022/05/10 00:29:19;;;;;;;15.40;8.20;;;19.20;67.50;;;;;;5053058;28;20475;-68
2022/05/10 00:31:46;;;;;;;17.80;8.50;;;19.20;67.70;;;;;;5053065;28;20469;-69
2022/05/10 00:34:17;;;;;;;15.10;7.80;;;19.20;67.90;;;;;;5052615;28;20952;-68
2022/05/10 00:36:46;;;;;;;18.23;8.50;;;19.20;68.10;;;;;;5052887;28;20429;-68
2022/05/10 00:39:13;;;;;;;20.17;8.30;;;19.20;68.10;;;;;;5052995;28;20445;-68
2022/05/10 00:41:50;;;;;;;19.23;9.33;;;19.30;68.20;;;;;;5052624;28;21004;-68
2022/05/10 00:44:21;;;;;;;41.07;11.23;;;19.40;68.00;;;;;;5052974;28;20465;-69
2022/05/10 00:46:57;;;;;;;25.67;9.40;;;19.50;68.00;;;;;;5052915;28;20438;-69
2022/05/10 00:49:27;;;;;;;23.07;8.50;;;19.50;67.90;;;;;;5053111;28;20430;-68
2022/05/10 00:52:03;;;;;;;30.17;9.30;;;19.20;67.40;;;;;;5052966;28;20466;-68
2022/05/10 00:54:36;;;;;;;59.93;12.80;;;19.00;68.70;;;;;;5052985;28;20460;-68
2022/05/10 00:57:15;;;;;;;32.33;10.20;;;19.00;69.50;;;;;;5052925;28;20441;-69
2022/05/10 00:59:50;;;;;;;35.10;10.80;;;19.00;70.10;;;;;;5053009;28;20434;-69
2022/05/10 01:02:39;;;;;;;34.70;11.17;;;19.10;70.30;;;;;;5052559;28;20469;-68
2022/05/10 01:05:15;;;;;;;41.20;11.00;;;19.10;70.30;;;;;;5052212;28;20515;-68
2022/05/10 01:07:49;;;;;;;45.90;12.33;;;19.10;69.90;;;;;;5052460;28;20469;-69
2022/05/10 01:10:24;;;;;;;36.47;10.50;;;19.20;70.10;;;;;;5052474;28;20430;-68
2022/05/10 01:12:58;;;;;;;35.93;11.77;;;19.20;70.60;;;;;;5052638;28;20467;-68
2022/05/10 01:15:26;;;;;;;38.90;11.90;;;19.20;70.50;;;;;;5052608;28;20418;-69
2022/05/10 01:17:56;;;;;;;37.17;12.47;;;19.30;70.30;;;;;;5052545;28;20449;-69
2022/05/10 01:20:31;;;;;;;43.70;12.57;;;19.40;70.00;;;;;;5055649;28;20460;-69
2022/05/10 01:23:05;;;;;;;47.57;11.97;;;19.30;70.30;;;;;;5056206;28;20465;-68
2022/05/10 01:25:50;;;;;;;30.83;12.20;;;19.40;70.50;;;;;;5055995;28;20468;-68
2022/05/10 01:28:24;;;;;;;31.27;11.50;;;19.40;70.10;;;;;;5056761;28;20453;-68
2022/05/10 01:30:51;;;;;;;38.23;11.30;;;19.40;70.10;;;;;;5056182;28;20433;-69
2022/05/10 01:33:30;;;;;;;29.00;10.63;;;19.40;70.00;;;;;;5056015;28;20442;-68
2022/05/10 01:36:08;;;;;;;26.90;10.80;;;19.40;70.00;;;;;;5056051;28;20422;-68
2022/05/10 01:38:42;;;;;;;30.53;11.70;;;19.30;70.30;;;;;;5055914;28;20802;-68
2022/05/10 01:41:19;;;;;;;30.33;11.77;;;19.40;69.80;;;;;;5056131;28;20465;-68
2022/05/10 01:43:52;;;;;;;41.77;11.80;;;19.40;69.80;;;;;;5055896;28;20465;-69
2022/05/10 01:46:24;;;;;;;28.77;11.77;;;19.30;69.70;;;;;;5056314;28;20470;-69
2022/05/10 01:48:55;;;;;;;29.90;11.60;;;19.30;70.40;;;;;;5055736;28;20436;-69
2022/05/10 01:51:28;;;;;;;32.60;13.30;;;19.20;70.40;;;;;;5055633;28;20564;-68
2022/05/10 01:53:55;;;;;;;28.13;12.23;;;19.20;71.00;;;;;;5055850;28;20441;-68
2022/05/10 01:56:25;;;;;;;24.33;12.27;;;19.10;71.40;;;;;;5055783;28;20445;-68
2022/05/10 01:58:54;;;;;;;28.47;12.13;;;19.10;72.00;;;;;;5055434;28;20426;-69
2022/05/10 02:01:27;;;;;;;34.50;11.53;;;19.00;72.40;;;;;;5055534;28;20472;-69
2022/05/10 02:04:00;;;;;;;30.57;11.10;;;19.00;72.00;;;;;;5055693;28;20488;-69
2022/05/10 02:06:33;;;;;;;31.77;10.83;;;18.90;71.80;;;;;;5055467;28;20477;-69
2022/05/10 02:09:07;;;;;;;23.87;11.80;;;18.90;71.90;;;;;;5055306;28;20928;-69
2022/05/10 02:11:38;;;;;;;21.80;11.70;;;18.80;71.90;;;;;;5055370;28;20476;-69
2022/05/10 02:14:14;;;;;;;18.67;11.60;;;18.80;71.90;;;;;;5055406;28;20453;-69
2022/05/10 02:16:47;;;;;;;22.57;11.93;;;18.80;71.90;;;;;;5055740;28;20878;-69
2022/05/10 02:19:23;;;;;;;22.77;11.20;;;18.70;71.60;;;;;;5054924;28;20813;-69
2022/05/10 02:21:55;;;;;;;26.27;11.23;;;18.70;72.00;;;;;;5055206;28;20509;-68
2022/05/10 02:24:26;;;;;;;20.40;10.77;;;18.70;73.10;;;;;;5055247;28;20441;-69
2022/05/10 02:26:57;;;;;;;27.10;11.97;;;18.70;72.50;;;;;;5055053;28;20466;-69
2022/05/10 02:29:30;;;;;;;19.57;10.97;;;18.70;72.50;;;;;;5055130;28;20445;-69
2022/05/10 02:34:49;;;;;;;21.70;10.90;;;18.70;72.80;;;;;;5055141;28;20484;-69
2022/05/10 02:37:16;;;;;;;15.20;11.40;;;18.70;73.10;;;;;;5054960;28;20465;-69
2022/05/10 02:39:43;;;;;;;17.30;11.80;;;18.70;73.10;;;;;;5054996;28;20438;-69
2022/05/10 02:42:15;;;;;;;24.77;11.83;;;18.70;73.40;;;;;;5054809;28;20480;-68
2022/05/10 02:44:43;;;;;;;20.90;11.67;;;18.70;73.30;;;;;;5054427;28;20465;-69
2022/05/10 02:47:11;;;;;;;16.17;11.10;;;18.70;74.30;;;;;;5054456;28;21023;-69
2022/05/10 02:49:39;;;;;;;23.27;11.60;;;18.70;73.70;;;;;;5054660;28;20929;-69
2022/05/10 02:52:06;;;;;;;16.33;10.93;;;18.60;73.60;;;;;;5054846;28;20469;-69
2022/05/10 02:54:33;;;;;;;22.27;11.80;;;18.60;73.60;;;;;;5054805;28;20449;-69
2022/05/10 02:57:02;;;;;;;19.93;11.70;;;18.60;74.00;;;;;;5054902;28;20442;-69
2022/05/10 02:59:34;;;;;;;21.10;11.40;;;18.50;73.90;;;;;;5054430;28;20453;-69
2022/05/10 03:02:13;;;;;;;21.30;12.33;;;18.50;74.10;;;;;;5054234;28;21008;-68
2022/05/10 03:04:42;;;;;;;19.80;12.03;;;18.50;74.10;;;;;;5054009;28;21002;-68
2022/05/10 03:07:10;;;;;;;17.43;11.07;;;18.40;74.10;;;;;;5054308;28;20543;-69
2022/05/10 03:09:37;;;;;;;20.70;11.80;;;18.40;74.40;;;;;;5054223;28;20442;-68
2022/05/10 03:12:05;;;;;;;17.73;11.27;;;18.40;74.70;;;;;;5054440;28;20469;-69
2022/05/10 03:14:32;;;;;;;23.40;11.53;;;18.30;74.70;;;;;;5054099;28;20453;-69
2022/05/10 03:16:59;;;;;;;13.57;12.07;;;18.30;75.00;;;;;;5054115;28;20520;-69
2022/05/10 03:19:27;;;;;;;20.17;11.23;;;18.30;75.20;;;;;;5053662;28;20564;-69
2022/05/10 03:21:54;;;;;;;20.63;12.20;;;18.30;75.40;;;;;;5059102;28;20549;-69
2022/05/10 03:24:20;;;;;;;19.73;11.50;;;18.30;75.30;;;;;;5061773;28;20456;-69
2022/05/10 03:26:50;;;;;;;15.70;11.40;;;18.30;75.40;;;;;;5061213;28;20485;-69
2022/05/10 03:29:17;;;;;;;16.77;11.73;;;18.30;75.60;;;;;;5060932;28;20457;-69
2022/05/10 03:31:45;;;;;;;15.57;12.53;;;18.30;76.20;;;;;;5060581;28;20980;-69
2022/05/10 03:36:58;;;;;;;14.57;11.60;;;18.30;76.70;;;;;;5061308;28;20470;-69
2022/05/10 03:39:25;;;;;;;13.93;11.07;;;18.20;76.50;;;;;;5060694;28;20525;-69
2022/05/10 03:41:52;;;;;;;13.57;12.00;;;18.30;76.80;;;;;;5060169;28;20985;-69
2022/05/10 03:44:18;;;;;;;11.77;10.77;;;18.30;76.90;;;;;;5059747;28;20454;-69
2022/05/10 03:46:46;;;;;;;13.93;12.53;;;18.20;76.40;;;;;;5059845;28;20497;-69
2022/05/10 03:49:13;;;;;;;12.30;11.00;;;18.20;76.50;;;;;;5060474;28;20801;-69
2022/05/10 03:51:40;;;;;;;12.40;11.10;;;18.20;76.70;;;;;;5060720;28;20462;-69
2022/05/10 03:54:08;;;;;;;15.03;11.80;;;18.10;76.60;;;;;;5061400;28;20465;-69
2022/05/10 03:56:34;;;;;;;17.13;12.70;;;18.10;76.90;;;;;;5061326;28;20454;-69
2022/05/10 03:59:01;;;;;;;13.27;11.90;;;18.00;77.20;;;;;;5060613;28;20449;-70
2022/05/10 04:01:29;;;;;;;14.13;12.00;;;18.00;77.40;;;;;;5061320;28;20473;-66
2022/05/10 04:03:56;;;;;;;12.87;11.60;;;18.00;77.40;;;;;;5061531;28;20449;-69
2022/05/10 04:06:22;;;;;;;14.27;12.80;;;17.90;77.40;;;;;;5061846;28;20477;-69
2022/05/10 04:08:49;;;;;;;21.10;13.00;;;17.90;77.70;;;;;;5062080;28;20795;-69
2022/05/10 04:11:18;;;;;;;14.77;13.30;;;17.90;77.70;;;;;;5062180;28;20476;-69
2022/05/10 04:13:45;;;;;;;17.13;12.90;;;17.90;78.10;;;;;;5062285;28;20446;-69
2022/05/10 04:16:12;;;;;;;12.10;10.93;;;17.90;78.10;;;;;;5062296;28;20452;-69
2022/05/10 04:18:39;;;;;;;13.60;11.87;;;17.80;77.90;;;;;;5060394;28;20969;-69
2022/05/10 04:21:06;;;;;;;12.10;10.97;;;17.80;78.20;;;;;;5061680;28;20946;-69
2022/05/10 04:23:33;;;;;;;12.90;11.70;;;17.80;78.60;;;;;;5061773;28;20449;-69
2022/05/10 04:26:04;;;;;;;12.67;11.47;;;17.90;79.00;;;;;;5062030;28;21003;-70
2022/05/10 04:28:32;;;;;;;13.00;11.70;;;17.90;79.00;;;;;;5061464;28;21032;-69
2022/05/10 04:30:59;;;;;;;14.40;11.70;;;17.90;79.00;;;;;;5059771;28;20462;-69
2022/05/10 04:33:26;;;;;;;14.07;11.90;;;18.00;79.10;;;;;;5059781;28;20504;-69
2022/05/10 04:35:53;;;;;;;12.73;11.27;;;17.90;79.10;;;;;;5059661;28;20445;-70
2022/05/10 04:38:19;;;;;;;15.83;10.90;;;17.90;78.80;;;;;;5056891;28;20449;-69
2022/05/10 04:43:33;;;;;;;13.30;11.20;;;17.90;79.10;;;;;;5057387;28;20455;-69
2022/05/10 04:46:00;;;;;;;8.60;7.50;;;17.90;79.30;;;;;;5060330;28;20481;-69
2022/05/10 04:48:27;;;;;;;17.50;10.53;;;17.90;76.80;;;;;;5064576;28;20442;-68
2022/05/10 04:50:55;;;;;;;33.07;11.30;;;18.00;75.50;;;;;;5066094;28;20449;-68
2022/05/10 04:53:22;;;;;;;18.40;9.50;;;18.20;75.80;;;;;;5061577;28;20453;-69
2022/05/10 04:55:49;;;;;;;14.60;10.00;;;18.40;75.20;;;;;;5068625;28;20449;-68
2022/05/10 04:58:16;;;;;;;21.83;11.87;;;18.50;74.30;;;;;;5071868;28;20547;-71
2022/05/10 05:00:44;;;;;;;12.70;9.47;;;18.70;74.90;;;;;;5077459;28;20483;-71
2022/05/10 05:03:11;;;;;;;10.23;9.00;;;18.90;72.90;;;;;;5078605;28;20517;-71
2022/05/10 05:05:38;;;;;;;14.00;9.67;;;19.00;71.80;;;;;;5078224;28;20438;-71
2022/05/10 05:08:05;;;;;;;12.37;8.77;;;19.00;71.30;;;;;;5078409;28;20444;-71
2022/05/10 05:10:32;;;;;;;9.90;9.07;;;19.00;71.20;;;;;;5077906;28;20449;-70
2022/05/10 05:12:59;;;;;;;11.37;9.63;;;19.00;70.90;;;;;;5078319;28;20448;-70
2022/05/10 05:15:26;;;;;;;10.97;7.80;;;19.00;70.50;;;;;;5077776;28;20453;-72
2022/05/10 05:17:54;;;;;;;8.93;8.20;;;19.00;70.00;;;;;;5077418;28;20402;-71
2022/05/10 05:20:21;;;;;;;10.93;9.00;;;19.00;70.10;;;;;;5076960;28;20449;-71
2022/05/10 05:22:47;;;;;;;16.07;8.90;;;19.10;69.60;;;;;;5075058;28;20465;-71
2022/05/10 05:25:14;;;;;;;8.70;7.80;;;19.10;69.70;;;;;;5073666;28;20430;-71
2022/05/10 05:27:41;;;;;;;9.60;8.77;;;19.10;70.30;;;;;;5076711;28;20481;-71
2022/05/10 05:30:08;;;;;;;8.90;7.97;;;19.10;69.50;;;;;;5075831;28;20445;-71
2022/05/10 05:32:35;;;;;;;9.93;9.03;;;19.10;70.20;;;;;;5076225;28;20477;-71
2022/05/10 05:35:05;;;;;;;9.90;9.00;;;19.10;69.30;;;;;;5076493;28;20501;-71
2022/05/10 05:37:34;;;;;;;9.30;8.50;;;19.20;69.40;;;;;;5080353;28;20458;-70
2022/05/10 05:40:03;;;;;;;10.23;9.13;;;19.20;69.00;;;;;;5077431;28;20437;-70
2022/05/10 05:42:31;;;;;;;12.23;8.60;;;19.20;68.90;;;;;;5074752;28;20466;-70
2022/05/10 05:44:58;;;;;;;8.93;8.23;;;19.20;69.10;;;;;;5075451;28;20464;-70
2022/05/10 05:47:25;;;;;;;9.50;8.70;;;19.20;68.90;;;;;;5076037;28;20488;-70
2022/05/10 05:49:52;;;;;;;11.33;10.20;;;19.20;69.20;;;;;;5075433;28;20445;-71
2022/05/10 05:52:22;;;;;;;9.07;8.17;;;19.20;69.10;;;;;;5075484;28;20462;-71
2022/05/10 05:54:49;;;;;;;9.80;7.67;;;19.30;69.10;;;;;;5077090;28;20422;-71
2022/05/10 05:57:16;;;;;;;12.60;9.33;;;19.30;68.70;;;;;;5075470;28;20438;-71
2022/05/10 05:59:43;;;;;;;9.20;8.40;;;19.30;69.00;;;;;;5076170;28;20433;-72
2022/05/10 06:02:15;;;;;;;9.30;8.30;;;19.40;68.80;;;;;;5075513;28;20521;-72
2022/05/10 06:04:43;;;;;;;11.40;8.83;;;19.40;68.60;;;;;;5075637;28;20433;-71
2022/05/10 06:07:10;;;;;;;11.37;9.33;;;19.40;68.50;;;;;;5074339;28;20487;-72
2022/05/10 06:09:38;;;;;;;9.80;8.90;;;19.40;68.60;;;;;;5075979;28;20445;-72
2022/05/10 06:12:06;;;;;;;11.20;10.17;;;19.40;69.00;;;;;;5075559;28;20468;-72
2022/05/10 06:14:34;;;;;;;10.77;9.87;;;19.40;68.80;;;;;;5074851;28;20446;-72
2022/05/10 06:17:01;;;;;;;8.87;8.17;;;19.50;69.20;;;;;;5075812;28;20445;-71
2022/05/10 06:19:29;;;;;;;8.63;7.73;;;19.50;68.70;;;;;;5075372;28;20514;-71
2022/05/10 06:21:56;;;;;;;9.17;8.33;;;19.50;68.40;;;;;;5074506;28;20458;-71
2022/05/10 06:24:23;;;;;;;10.77;9.70;;;19.50;68.40;;;;;;5075368;28;20442;-71
2022/05/10 06:26:51;;;;;;;9.53;8.63;;;19.60;69.10;;;;;;5075485;28;20564;-71
2022/05/10 06:29:18;;;;;;;10.37;8.40;;;19.70;68.80;;;;;;5075326;28;20441;-71
2022/05/10 06:31:47;;;;;;;10.40;9.40;;;19.70;69.10;;;;;;5075247;28;20465;-72
2022/05/10 06:34:14;;;;;;;9.87;8.97;;;19.80;68.60;;;;;;5075519;28;20457;-72
2022/05/10 06:36:42;;;;;;;11.20;9.63;;;19.90;68.90;;;;;;5075805;28;20442;-72
2022/05/10 06:39:09;;;;;;;9.47;8.40;;;20.00;68.80;;;;;;5074709;28;20429;-72
2022/05/10 06:41:36;;;;;;;8.90;8.10;;;20.10;68.10;;;;;;5074652;28;20438;-72
2022/05/10 06:44:06;;;;;;;12.87;9.60;;;20.20;67.60;;;;;;5074393;28;20467;-72
2022/05/10 06:46:34;;;;;;;8.80;8.00;;;20.30;66.90;;;;;;5074762;28;20493;-72
2022/05/10 06:49:02;;;;;;;8.20;7.40;;;20.50;67.50;;;;;;5075090;28;20445;-71
2022/05/10 06:51:29;;;;;;;8.70;7.93;;;20.60;66.00;;;;;;5074393;28;20468;-72
2022/05/10 06:53:56;;;;;;;16.00;10.60;;;20.70;66.20;;;;;;5073739;28;20441;-71
2022/05/10 06:56:24;;;;;;;8.43;7.73;;;20.90;65.80;;;;;;5073976;28;20445;-72
2022/05/10 06:58:51;;;;;;;9.10;8.20;;;21.00;65.20;;;;;;5074835;28;20438;-72
2022/05/10 07:01:19;;;;;;;10.90;8.63;;;21.20;65.00;;;;;;5074100;28;20470;-72
2022/05/10 07:03:48;;;;;;;8.43;7.60;;;21.30;64.60;;;;;;5074055;28;20457;-72
2022/05/10 07:06:18;;;;;;;11.27;8.37;;;21.50;64.30;;;;;;5074023;28;20454;-72
2022/05/10 07:08:45;;;;;;;10.63;9.53;;;21.70;63.40;;;;;;5073833;28;20821;-72
2022/05/10 07:11:12;;;;;;;9.43;8.57;;;21.90;64.40;;;;;;5074021;28;20473;-72
2022/05/10 07:13:40;;;;;;;8.60;6.87;;;22.10;61.60;;;;;;5073329;28;20433;-72
2022/05/10 07:16:07;;;;;;;9.17;7.10;;;22.40;59.80;;;;;;5073669;28;20472;-72
2022/05/10 07:18:35;;;;;;;7.90;7.30;;;22.60;59.00;;;;;;5074211;28;20434;-72
2022/05/10 07:21:02;;;;;;;9.47;7.33;;;22.60;58.40;;;;;;5073612;28;20477;-72
2022/05/10 07:23:31;;;;;;;9.53;7.70;;;22.70;58.50;;;;;;5073990;28;20448;-72
2022/05/10 07:25:58;;;;;;;6.80;6.10;;;22.70;59.30;;;;;;5072786;28;20449;-72
2022/05/10 07:28:29;;;;;;;8.60;6.80;;;22.90;57.90;;;;;;5072182;28;20473;-72
2022/05/10 07:30:56;;;;;;;7.23;6.50;;;22.90;57.90;;;;;;5072841;28;20430;-72
2022/05/10 07:33:24;;;;;;;13.17;7.93;;;23.00;57.50;;;;;;5073361;28;20445;-73
2022/05/10 07:38:38;;;;;;;5.70;5.00;;;23.10;57.40;;;;;;5073247;28;20425;-72
2022/05/10 07:41:04;;;;;;;7.70;6.37;;;23.20;57.20;;;;;;5072526;28;20472;-72
2022/05/10 07:43:35;;;;;;;14.40;7.40;;;23.30;57.10;;;;;;5072401;28;20456;-72
2022/05/10 07:46:02;;;;;;;12.10;8.10;;;23.30;57.20;;;;;;5072548;28;20442;-72
2022/05/10 07:48:29;;;;;;;11.93;6.53;;;23.30;57.50;;;;;;5072485;28;20489;-72
2022/05/10 07:50:57;;;;;;;11.27;7.20;;;23.40;57.30;;;;;;5072154;28;20445;-73
2022/05/10 07:53:26;;;;;;;8.00;6.33;;;23.50;57.50;;;;;;5071257;28;20441;-72
2022/05/10 07:55:53;;;;;;;10.73;7.80;;;23.60;56.90;;;;;;5071474;28;20445;-73
2022/05/10 07:58:19;;;;;;;9.57;6.57;;;23.60;56.80;;;;;;5071068;28;20446;-73
2022/05/10 08:00:46;;;;;;;7.17;6.47;;;23.80;56.80;;;;;;5071718;28;20429;-72
2022/05/10 08:03:15;;;;;;;7.30;6.67;;;23.90;58.20;;;;;;5071911;28;20456;-72
2022/05/10 08:05:43;;;;;;;8.83;5.40;;;24.10;57.60;;;;;;5071559;28;20445;-73
2022/05/10 08:08:12;;;;;;;11.77;6.07;;;24.30;56.10;;;;;;5070108;28;20481;-73
2022/05/10 08:10:40;;;;;;;10.30;5.93;;;24.50;56.20;;;;;;5069605;28;20477;-72
2022/05/10 08:13:11;;;;;;;7.50;5.50;;;24.80;55.00;;;;;;5069498;28;20514;-72
2022/05/10 08:15:38;;;;;;;13.87;6.97;;;24.90;54.20;;;;;;5069738;28;20457;-72
2022/05/10 08:18:06;;;;;;;10.50;5.93;;;25.10;54.70;;;;;;5068839;28;20446;-71
2022/05/10 08:20:33;;;;;;;9.10;6.87;;;25.40;54.30;;;;;;5067467;28;20452;-70
2022/05/10 08:23:00;;;;;;;9.10;5.30;;;25.60;53.90;;;;;;5066539;28;20852;-70
2022/05/10 08:25:29;;;;;;;7.00;5.60;;;25.90;51.20;;;;;;5067562;28;20496;-70
2022/05/10 08:27:55;;;;;;;5.90;5.07;;;26.10;49.20;;;;;;5068415;28;20894;-70
2022/05/10 08:30:22;;;;;;;5.23;4.70;;;26.20;48.80;;;;;;5070337;28;20449;-70
2022/05/10 08:32:49;;;;;;;6.63;5.77;;;26.50;48.90;;;;;;5071444;28;20477;-70
2022/05/10 08:35:16;;;;;;;10.70;5.20;;;26.80;48.20;;;;;;5071816;28;20936;-70
2022/05/10 08:37:42;;;;;;;8.80;4.70;;;27.10;47.90;;;;;;5070927;28;20448;-70
2022/05/10 08:40:24;;;;;;;13.33;5.30;;;27.50;48.60;;;;;;5071162;28;20446;-71
2022/05/10 08:42:55;;;;;;;6.93;4.70;;;28.00;45.10;;;;;;5072053;28;20465;-71
2022/05/10 08:45:24;;;;;;;7.40;4.20;;;28.40;44.30;;;;;;5072872;28;20779;-71
2022/05/10 08:47:51;;;;;;;5.20;4.20;;;28.50;43.00;;;;;;5071693;28;20481;-72
2022/05/10 08:50:19;;;;;;;7.73;4.97;;;28.70;43.30;;;;;;5071176;28;20948;-73
2022/05/10 08:52:47;;;;;;;3.93;3.60;;;28.60;42.70;;;;;;5072203;28;20463;-72
2022/05/10 08:55:21;;;;;;;7.40;4.20;;;28.40;40.70;;;;;;5072362;28;20452;-72
2022/05/10 08:57:52;;;;;;;9.60;3.87;;;28.30;42.80;;;;;;5072416;28;20430;-72
2022/05/10 09:00:28;;;;;;;7.03;4.50;;;28.20;42.50;;;;;;5074665;28;20450;-71
2022/05/10 09:02:56;;;;;;;6.40;3.93;;;28.00;41.60;;;;;;5076129;28;20457;-71
2022/05/10 09:05:27;;;;;;;3.67;3.33;;;27.80;41.00;;;;;;5074921;28;20438;-71
2022/05/10 09:08:05;;;;;;;4.73;4.30;;;27.60;41.40;;;;;;5070951;28;20465;-71
2022/05/10 09:10:37;;;;;;;4.43;3.87;;;27.30;40.30;;;;;;5072003;28;20445;-71
2022/05/10 09:13:08;;;;;;;4.13;3.00;;;27.00;41.70;;;;;;5070994;28;20497;-70
2022/05/10 09:15:37;;;;;;;5.40;3.93;;;26.90;42.20;;;;;;5079337;28;20464;-71
2022/05/10 09:18:10;;;;;;;6.10;3.90;;;26.80;41.50;;;;;;5073912;28;20441;-70
2022/05/10 09:20:45;;;;;;;6.00;3.80;;;26.60;41.90;;;;;;5074485;28;20449;-70
2022/05/10 09:23:22;;;;;;;3.77;3.20;;;26.40;42.80;;;;;;5074566;28;20430;-70
2022/05/10 09:25:50;;;;;;;6.43;4.00;;;26.40;42.50;;;;;;5074287;28;20425;-71
2022/05/10 09:28:25;;;;;;;3.43;3.13;;;26.40;43.20;;;;;;5073928;28;20489;-70
2022/05/10 09:36:26;;;;;;;6.43;3.97;;;26.70;40.50;;;;;;5077457;28;20438;-69
2022/05/10 09:39:01;;;;;;;5.83;3.43;;;26.90;40.70;;;;;;5076348;28;20430;-70
2022/05/10 09:41:33;;;;;;;3.93;3.47;;;27.10;41.20;;;;;;5073120;28;20478;-71
2022/05/10 09:44:19;;;;;;;6.50;4.07;;;27.40;39.20;;;;;;5073377;28;20457;-72
2022/05/10 09:46:46;;;;;;;6.80;3.23;;;27.60;38.60;;;;;;5071896;28;20430;-70
2022/05/10 09:49:37;;;;;;;8.33;2.87;;;27.60;39.50;;;;;;5072201;28;20482;-71
2022/05/10 09:52:06;;;;;;;4.93;3.40;;;27.70;38.40;;;;;;5072681;28;20980;-70
2022/05/10 09:54:37;;;;;;;7.30;3.97;;;27.90;38.20;;;;;;5071907;28;20458;-70
2022/05/10 09:57:05;;;;;;;3.83;3.50;;;28.00;38.10;;;;;;5071393;28;20426;-71
2022/05/10 09:59:45;;;;;;;7.30;3.67;;;27.70;37.00;;;;;;5071360;28;20446;-70
2022/05/10 10:02:12;;;;;;;4.40;3.70;;;27.50;37.40;;;;;;5071617;28;20470;-70
2022/05/10 10:04:40;;;;;;;7.07;3.63;;;27.50;37.40;;;;;;5071893;28;20456;-71
2022/05/10 10:07:14;;;;;;;4.87;3.50;;;27.60;38.30;;;;;;5071010;28;20429;-71
2022/05/10 10:09:44;;;;;;;3.70;3.23;;;27.70;37.10;;;;;;5073697;28;20434;-71
2022/05/10 10:12:16;;;;;;;6.97;3.30;;;27.60;36.50;;;;;;5075355;28;20469;-71
2022/05/10 10:14:46;;;;;;;8.23;3.33;;;27.70;35.80;;;;;;5074952;28;20457;-71
2022/05/10 10:17:23;;;;;;;7.70;4.20;;;27.70;36.20;;;;;;5074134;28;20425;-70
2022/05/10 10:19:54;;;;;;;9.57;4.07;;;27.70;36.40;;;;;;5074489;28;20430;-71
2022/05/10 10:22:28;;;;;;;8.33;3.57;;;27.80;35.70;;;;;;5076204;28;20469;-70
2022/05/10 10:25:02;;;;;;;9.73;3.43;;;27.70;37.40;;;;;;5075839;28;20437;-71
2022/05/10 10:27:34;;;;;;;11.13;3.50;;;27.80;36.40;;;;;;5072505;28;20434;-72
2022/05/10 10:30:08;;;;;;;11.80;4.17;;;28.00;36.30;;;;;;5073667;28;20464;-72
2022/05/10 10:32:38;;;;;;;6.10;3.20;;;28.00;36.90;;;;;;5072991;28;20465;-68
2022/05/10 10:35:12;;;;;;;6.20;3.10;;;28.00;36.30;;;;;;5075126;28;20440;-70
2022/05/10 10:37:43;;;;;;;10.50;3.77;;;27.80;35.70;;;;;;5074291;28;20921;-72
2022/05/10 10:40:22;;;;;;;6.93;3.50;;;27.70;37.70;;;;;;5069579;28;20430;-69
2022/05/10 10:42:55;;;;;;;3.23;2.93;;;27.50;36.50;;;;;;5071323;28;20461;-72
2022/05/10 10:45:33;;;;;;;4.10;3.60;;;27.30;36.60;;;;;;5071002;28;20442;-72
2022/05/10 10:48:09;;;;;;;5.67;3.33;;;27.20;36.10;;;;;;5071035;28;20517;-72
2022/05/10 10:50:37;;;;;;;5.90;3.33;;;27.10;35.60;;;;;;5071761;28;20429;-72
2022/05/10 10:53:09;;;;;;;10.23;3.67;;;27.00;36.00;;;;;;5070658;28;20453;-73
2022/05/10 10:55:47;;;;;;;7.67;4.03;;;27.10;37.70;;;;;;5070889;28;20529;-72
2022/05/10 10:58:26;;;;;;;14.73;4.00;;;27.20;36.40;;;;;;5071059;28;20893;-71
2022/05/10 11:01:03;;;;;;;6.83;4.07;;;27.20;36.70;;;;;;5072008;28;20434;-72
2022/05/10 11:03:36;;;;;;;5.67;3.60;;;27.20;36.70;;;;;;5072062;28;20441;-71
2022/05/10 11:06:22;;;;;;;4.77;3.77;;;27.40;36.40;;;;;;5072556;28;20430;-71
2022/05/10 11:09:00;;;;;;;5.03;3.37;;;27.80;35.70;;;;;;5073797;28;20474;-71
2022/05/10 11:11:36;;;;;;;3.67;3.37;;;28.20;35.70;;;;;;5070652;28;20466;-70
2022/05/10 11:14:16;;;;;;;6.90;4.00;;;28.50;34.90;;;;;;5067607;28;20437;-71
2022/05/10 11:16:55;;;;;;;6.93;4.30;;;28.80;34.50;;;;;;5069120;28;20429;-71
2022/05/10 11:19:42;;;;;;;5.33;3.03;;;28.90;33.40;;;;;;5068178;28;20509;-71
2022/05/10 11:22:20;;;;;;;4.73;3.90;;;28.80;33.50;;;;;;5067543;28;20472;-71
2022/05/10 11:24:56;;;;;;;4.87;3.63;;;28.60;34.00;;;;;;5068707;28;20433;-70
2022/05/10 11:27:45;;;;;;;6.93;4.00;;;28.30;34.20;;;;;;5067992;28;20437;-71
2022/05/10 11:30:18;;;;;;;5.73;3.87;;;28.60;35.60;;;;;;5067369;28;20438;-71
2022/05/10 11:33:07;;;;;;;4.27;3.87;;;28.80;35.20;;;;;;5068039;28;20469;-71
2022/05/10 11:35:50;;;;;;;4.37;3.33;;;29.20;33.90;;;;;;5068464;28;20441;-71
2022/05/10 11:38:33;;;;;;;7.43;4.20;;;29.70;33.70;;;;;;5066863;28;20426;-71
2022/05/10 11:41:08;;;;;;;4.30;3.47;;;30.30;33.70;;;;;;5063038;28;20476;-71
2022/05/10 11:44:25;;;;;;;3.70;3.40;;;31.00;31.20;;;;;;5064432;28;20841;-71
2022/05/10 11:47:27;;;;;;;4.47;4.07;;;31.90;29.90;;;;;;5005961;28;20452;-72
2022/05/10 11:50:27;;;;;;;6.47;4.70;;;32.80;28.80;;;;;;5007479;28;20534;-72
2022/05/10 11:53:35;;;;;;;5.80;4.70;;;34.00;27.50;;;;;;5062336;28;20473;-71
2022/05/10 11:56:03;;;;;;;7.33;4.40;;;34.70;26.90;;;;;;5066694;28;20421;-71
2022/05/10 11:58:35;;;;;;;5.07;4.57;;;35.40;25.30;;;;;;5068282;28;20441;-71
2022/05/10 12:01:02;;;;;;;7.43;4.20;;;35.50;24.70;;;;;;5065328;28;20469;-71
2022/05/10 12:03:51;;;;;;;8.77;4.80;;;35.10;25.90;;;;;;5067639;28;20414;-71
2022/05/10 12:06:42;;;;;;;10.00;5.27;;;34.20;26.40;;;;;;5071331;28;20432;-72
2022/05/10 12:09:14;;;;;;;12.20;4.77;;;33.80;26.90;;;;;;5069178;28;20472;-71
2022/05/10 12:11:43;;;;;;;7.00;4.43;;;33.80;26.60;;;;;;5066587;28;20465;-72
2022/05/10 12:23:01;;;;;;;9.20;4.80;;;34.50;26.40;;;;;;5069642;28;20448;-72
2022/05/10 12:25:54;;;;;;;10.83;4.93;;;34.50;25.90;;;;;;5067443;28;20445;-71
2022/05/10 12:28:45;;;;;;;6.33;4.50;;;34.40;27.20;;;;;;5068904;28;20480;-71
2022/05/10 12:31:50;;;;;;;4.97;4.37;;;33.40;26.60;;;;;;5070585;28;20471;-71
2022/05/10 12:34:41;;;;;;;5.87;4.80;;;32.60;28.10;;;;;;5066524;28;20437;-71
2022/05/10 12:37:41;;;;;;;5.70;5.20;;;31.70;29.20;;;;;;5068338;28;20452;-71
2022/05/10 12:40:34;;;;;;;5.37;4.87;;;31.50;30.00;;;;;;5068490;28;20812;-71
2022/05/10 12:43:38;;;;;;;6.97;4.53;;;31.40;30.20;;;;;;5070816;28;20500;-71
2022/05/10 12:46:17;;;;;;;8.17;4.50;;;31.40;30.50;;;;;;5058969;28;20448;-71
2022/05/10 12:49:00;;;;;;;5.03;4.30;;;31.40;29.10;;;;;;5067521;28;20473;-68
2022/05/10 12:51:38;;;;;;;12.73;5.07;;;31.20;29.10;;;;;;5061621;28;20527;-69
2022/05/10 12:54:13;;;;;;;8.80;4.20;;;30.90;30.30;;;;;;5062565;28;20434;-69
2022/05/10 12:57:00;;;;;;;8.10;4.53;;;31.00;30.00;;;;;;5063140;28;20433;-69
2022/05/10 12:59:33;;;;;;;4.97;4.47;;;31.10;30.10;;;;;;5063713;28;20424;-69
2022/05/10 13:02:03;;;;;;;10.37;4.40;;;31.00;29.60;;;;;;5062152;28;20508;-69
2022/05/10 13:04:36;;;;;;;10.13;4.50;;;31.00;29.90;;;;;;5061879;28;20799;-69
2022/05/10 13:07:09;;;;;;;6.07;4.70;;;30.60;30.30;;;;;;5058236;28;20452;-68
2022/05/10 13:09:38;;;;;;;8.23;4.63;;;30.30;30.60;;;;;;5055001;28;20484;-68
2022/05/10 13:12:10;;;;;;;11.40;4.30;;;29.80;31.30;;;;;;5054372;28;20465;-68
2022/05/10 13:14:39;;;;;;;7.10;4.60;;;29.30;33.90;;;;;;5054553;28;20441;-68
2022/05/10 13:17:07;;;;;;;7.63;4.50;;;29.00;35.40;;;;;;5058674;28;20449;-69
2022/05/10 13:19:40;;;;;;;11.80;4.07;;;28.80;34.90;;;;;;5057814;28;20452;-68
2022/05/10 13:22:10;;;;;;;9.00;4.17;;;28.70;35.90;;;;;;5057655;28;20519;-68
2022/05/10 13:24:37;;;;;;;10.93;4.60;;;28.80;34.90;;;;;;5057534;28;20937;-68
2022/05/10 13:27:06;;;;;;;5.93;4.00;;;28.90;33.60;;;;;;5057634;28;20453;-68